createdAt,value
2022-12-20T00:01:28.588Z,22.63
2022-12-20T00:03:58.077Z,29.95
2022-12-20T00:06:26.199Z,28.40
2022-12-20T00:08:59.505Z,24.33
2022-12-20T00:11:28.874Z,26.65
2022-12-20T00:13:56.174Z,22.92
2022-12-20T00:16:54.708Z,18.23
2022-12-20T00:19:26.777Z,22.08
2022-12-20T00:21:53.769Z,25.42
2022-12-20T00:27:37.754Z,19.38
2022-12-20T00:30:11.591Z,21.05
2022-12-20T00:32:45.636Z,20.35
2022-12-20T00:35:14.124Z,16.23
2022-12-20T00:37:41.804Z,22.42
2022-12-20T00:40:09.988Z,21.33
2022-12-20T00:42:37.727Z,19.17
2022-12-20T00:45:06.160Z,23.95
2022-12-20T00:47:33.851Z,16.48
2022-12-20T00:50:01.904Z,24.77
2022-12-20T00:52:29.745Z,23.58
2022-12-20T00:55:04.223Z,17.58
2022-12-20T00:57:31.747Z,25.42
2022-12-20T00:59:59.823Z,22.92
2022-12-20T01:05:24.907Z,19.50
2022-12-20T01:07:58.113Z,21.17
2022-12-20T01:10:30.938Z,22.77
2022-12-20T01:13:03.763Z,22.73
2022-12-20T01:15:36.883Z,23.60
2022-12-20T01:18:08.965Z,27.08
2022-12-20T01:20:35.737Z,18.60
2022-12-20T01:23:03.917Z,19.80
2022-12-20T01:25:31.704Z,18.80
2022-12-20T01:28:04.125Z,19.35
2022-12-20T01:30:31.739Z,22.73
2022-12-20T01:33:03.837Z,17.58
2022-12-20T01:35:31.820Z,16.00
2022-12-20T01:38:04.869Z,17.00
2022-12-20T01:40:33.798Z,22.77
2022-12-20T01:43:01.741Z,22.23
2022-12-20T01:45:33.862Z,19.88
2022-12-20T01:50:53.911Z,19.48
2022-12-20T01:53:28.059Z,21.10
2022-12-20T01:55:55.868Z,26.55
2022-12-20T01:58:23.887Z,19.30
2022-12-20T02:00:52.025Z,17.80
2022-12-20T02:03:20.137Z,23.48
2022-12-20T02:05:47.940Z,17.88
2022-12-20T02:08:19.364Z,22.50
2022-12-20T02:11:09.675Z,20.65
2022-12-20T02:13:59.113Z,21.95
2022-12-20T02:16:29.665Z,19.20
2022-12-20T02:19:21.727Z,16.60
2022-12-20T02:22:05.763Z,19.20
2022-12-20T02:24:58.171Z,16.17
2022-12-20T02:27:41.423Z,16.90
2022-12-20T02:33:14.399Z,19.95
2022-12-20T02:35:42.681Z,18.92
2022-12-20T02:38:38.244Z,18.10
2022-12-20T02:41:28.450Z,17.65
2022-12-20T02:44:23.935Z,14.23
2022-12-20T02:46:58.543Z,15.38
2022-12-20T02:52:48.168Z,18.52
2022-12-20T02:55:16.138Z,16.67
2022-12-20T02:58:27.903Z,16.08
2022-12-20T03:01:04.287Z,23.10
2022-12-20T03:03:38.033Z,17.45
2022-12-20T03:06:11.114Z,17.98
2022-12-20T03:08:39.724Z,15.15
2022-12-20T03:11:31.822Z,14.25
2022-12-20T03:13:59.872Z,18.17
2022-12-20T03:16:27.787Z,18.38
2022-12-20T03:19:00.727Z,17.15
2022-12-20T03:21:27.708Z,16.67
2022-12-20T03:23:55.754Z,11.18
2022-12-20T03:26:27.750Z,15.35
2022-12-20T03:28:59.689Z,18.98
2022-12-20T03:31:51.735Z,14.90
2022-12-20T03:34:19.730Z,14.25
2022-12-20T03:36:51.788Z,16.80
2022-12-20T03:39:19.739Z,18.15
2022-12-20T03:41:52.719Z,14.20
2022-12-20T03:44:19.886Z,13.95
2022-12-20T03:46:47.824Z,18.83
2022-12-20T03:49:15.887Z,12.05
2022-12-20T03:51:47.757Z,17.08
2022-12-20T03:54:15.757Z,15.43
2022-12-20T03:57:06.124Z,15.65
2022-12-20T03:59:34.038Z,16.02
2022-12-20T04:02:07.882Z,13.05
2022-12-20T04:04:35.717Z,13.98
2022-12-20T04:07:03.847Z,14.10
2022-12-20T04:15:15.890Z,12.02
2022-12-20T04:18:07.689Z,15.38
2022-12-20T04:20:39.788Z,12.68
2022-12-20T04:23:17.723Z,14.98
2022-12-20T04:25:52.114Z,12.73
2022-12-20T04:28:25.731Z,13.55
2022-12-20T04:30:56.186Z,12.50
2022-12-20T04:33:27.307Z,14.73
2022-12-20T04:35:56.241Z,14.05
2022-12-20T04:38:30.018Z,12.05
2022-12-20T04:40:58.003Z,13.93
2022-12-20T04:43:32.870Z,12.00
2022-12-20T04:46:01.931Z,13.15
2022-12-20T04:48:55.667Z,11.70
2022-12-20T04:51:18.112Z,12.43
2022-12-20T04:53:49.069Z,19.30
2022-12-20T04:56:29.279Z,11.88
2022-12-20T04:59:10.968Z,14.90
2022-12-20T05:01:39.789Z,11.90
2022-12-20T05:04:17.719Z,16.20
2022-12-20T05:06:45.700Z,15.70
2022-12-20T05:09:37.745Z,11.93
2022-12-20T05:12:29.745Z,19.75
2022-12-20T05:18:13.773Z,11.80
2022-12-20T05:21:14.476Z,11.30
2022-12-20T05:24:08.459Z,12.68
2022-12-20T05:27:06.730Z,12.68
2022-12-20T05:29:33.762Z,14.20
2022-12-20T05:32:01.700Z,16.20
2022-12-20T05:37:49.846Z,15.32
2022-12-20T05:40:22.395Z,11.20
2022-12-20T05:42:49.721Z,10.32
2022-12-20T05:45:22.727Z,12.07
2022-12-20T05:50:48.013Z,17.33
2022-12-20T05:53:28.137Z,13.45
2022-12-20T05:56:21.717Z,17.55
2022-12-20T06:02:07.848Z,15.98
2022-12-20T06:04:38.365Z,13.32
2022-12-20T06:07:18.759Z,17.52
2022-12-20T06:12:57.757Z,16.83
2022-12-20T06:15:25.780Z,13.63
2022-12-20T06:17:58.893Z,17.13
2022-12-20T06:20:25.868Z,16.05
2022-12-20T06:22:53.934Z,13.43
2022-12-20T06:25:21.734Z,14.88
2022-12-20T06:27:54.826Z,14.80
2022-12-20T06:30:21.849Z,11.43
2022-12-20T06:33:07.166Z,17.60
2022-12-20T06:35:42.132Z,13.38
2022-12-20T06:38:37.338Z,20.58
2022-12-20T06:41:07.521Z,12.98
2022-12-20T06:43:36.884Z,13.20
2022-12-20T06:46:06.390Z,17.25
2022-12-20T06:48:38.759Z,17.95
2022-12-20T06:51:07.882Z,14.60
2022-12-20T06:53:35.760Z,14.63
2022-12-20T06:56:04.166Z,17.02
2022-12-20T06:58:37.733Z,19.08
2022-12-20T07:01:06.090Z,20.33
2022-12-20T07:03:37.875Z,15.02
2022-12-20T07:06:05.976Z,15.13
2022-12-20T07:08:33.760Z,16.15
2022-12-20T07:11:13.367Z,16.52
2022-12-20T07:13:41.705Z,15.48
2022-12-20T07:16:10.138Z,14.02
2022-12-20T07:18:43.747Z,13.93
2022-12-20T07:21:19.048Z,13.73
2022-12-20T07:23:47.611Z,16.50
2022-12-20T07:26:15.882Z,17.73
2022-12-20T07:28:43.830Z,14.63
2022-12-20T07:31:11.836Z,18.52
2022-12-20T07:33:40.090Z,17.75
2022-12-20T07:36:16.388Z,17.08
2022-12-20T07:38:43.962Z,17.85
2022-12-20T07:41:14.811Z,17.45
2022-12-20T07:43:42.654Z,18.85
2022-12-20T07:46:19.524Z,19.00
2022-12-20T07:48:47.699Z,17.52
2022-12-20T07:51:21.520Z,20.88
2022-12-20T07:54:06.764Z,17.48
2022-12-20T07:56:41.167Z,18.83
2022-12-20T07:59:12.437Z,20.10
2022-12-20T08:02:07.648Z,18.48
2022-12-20T08:04:35.810Z,15.38
2022-12-20T08:07:29.913Z,20.40
2022-12-20T08:10:01.971Z,19.90
2022-12-20T08:12:31.015Z,16.92
2022-12-20T08:14:58.394Z,19.20
2022-12-20T08:17:25.798Z,18.52
2022-12-20T08:19:53.732Z,23.88
2022-12-20T08:22:25.912Z,22.45
2022-12-20T08:24:53.715Z,21.02
2022-12-20T08:27:25.765Z,17.20
2022-12-20T08:29:53.804Z,23.23
2022-12-20T08:32:21.748Z,20.75
2022-12-20T08:34:49.837Z,17.58
2022-12-20T08:37:17.815Z,20.65
2022-12-20T08:39:45.776Z,15.43
2022-12-20T08:42:17.752Z,21.20
2022-12-20T08:44:45.885Z,21.35
2022-12-20T08:47:18.222Z,15.07
2022-12-20T08:49:47.894Z,20.10
2022-12-20T08:52:15.783Z,18.88
2022-12-20T08:55:12.759Z,20.10
2022-12-20T08:57:41.737Z,17.48
2022-12-20T09:00:11.264Z,21.15
2022-12-20T09:02:41.314Z,20.15
2022-12-20T09:05:10.154Z,21.88
2022-12-20T09:07:43.740Z,21.80
2022-12-20T09:10:37.598Z,19.38
2022-12-20T09:13:05.809Z,26.85
2022-12-20T09:15:35.304Z,20.48
2022-12-20T09:18:07.779Z,17.83
2022-12-20T09:20:35.747Z,23.25
2022-12-20T09:23:03.754Z,20.08
2022-12-20T09:25:33.154Z,23.45
2022-12-20T09:28:01.750Z,20.15
2022-12-20T09:30:29.732Z,18.73
2022-12-20T09:35:55.127Z,24.15
2022-12-20T09:38:21.755Z,18.52
2022-12-20T09:41:01.157Z,17.10
2022-12-20T09:43:30.279Z,20.17
2022-12-20T09:46:00.107Z,21.17
2022-12-20T09:48:40.505Z,24.70
2022-12-20T09:51:13.858Z,17.15
2022-12-20T09:54:07.111Z,23.38
2022-12-20T09:56:39.505Z,21.70
2022-12-20T09:59:14.829Z,19.98
2022-12-20T10:01:53.041Z,19.27
2022-12-20T10:04:19.907Z,18.42
2022-12-20T10:07:13.177Z,22.13
2022-12-20T10:10:14.764Z,24.13
2022-12-20T10:12:55.119Z,22.98
2022-12-20T10:15:28.649Z,25.27
2022-12-20T10:18:35.707Z,22.52
2022-12-20T10:21:24.298Z,22.15
2022-12-20T10:24:15.443Z,24.33
2022-12-20T10:26:43.916Z,24.58
2022-12-20T10:29:11.887Z,23.17
2022-12-20T10:32:18.755Z,24.90
2022-12-20T10:35:16.108Z,24.92
2022-12-20T10:38:17.436Z,23.55
2022-12-20T10:44:07.682Z,19.35
2022-12-20T10:46:42.147Z,21.52
2022-12-20T10:49:31.202Z,17.70
2022-12-20T10:52:03.918Z,20.27
2022-12-20T10:54:48.861Z,20.25
2022-12-20T10:57:24.731Z,17.45
2022-12-20T10:59:54.997Z,14.88
2022-12-20T11:02:38.953Z,18.65
2022-12-20T11:05:10.726Z,16.67
2022-12-20T11:11:18.718Z,14.02
2022-12-20T11:13:46.927Z,13.35
2022-12-20T11:16:31.452Z,16.30
2022-12-20T11:19:21.602Z,14.40
2022-12-20T11:22:05.924Z,16.33
2022-12-20T11:24:53.566Z,17.10
2022-12-20T11:27:41.745Z,19.67
2022-12-20T11:33:36.549Z,17.50
2022-12-20T11:39:03.662Z,13.68
2022-12-20T11:41:57.218Z,16.20
2022-12-20T11:45:09.328Z,18.65
2022-12-20T11:48:06.412Z,14.68
2022-12-20T11:50:43.762Z,13.13
2022-12-20T11:53:32.614Z,14.07
2022-12-20T11:56:57.119Z,12.15
2022-12-20T11:59:52.149Z,15.93
2022-12-20T12:02:29.805Z,13.07
2022-12-20T12:05:06.089Z,12.93
2022-12-20T12:08:06.035Z,13.75
2022-12-20T12:10:44.237Z,11.77
2022-12-20T12:13:18.966Z,17.42
2022-12-20T12:16:06.996Z,11.23
2022-12-20T12:18:42.130Z,11.63
2022-12-20T12:21:40.516Z,11.70
2022-12-20T12:24:14.321Z,12.27
2022-12-20T12:27:08.002Z,13.38
2022-12-20T12:30:05.300Z,16.50
2022-12-20T12:32:55.417Z,11.90
2022-12-20T12:35:55.063Z,13.80
2022-12-20T12:38:33.965Z,13.07
2022-12-20T12:41:27.116Z,15.98
2022-12-20T12:43:56.590Z,18.27
2022-12-20T12:46:35.924Z,12.23
2022-12-20T12:49:17.642Z,13.60
2022-12-20T12:54:47.834Z,12.57
2022-12-20T12:57:18.158Z,16.45
2022-12-20T12:59:48.575Z,12.05
2022-12-20T13:02:16.375Z,11.05
2022-12-20T13:04:58.937Z,11.63
2022-12-20T13:07:32.017Z,13.32
2022-12-20T13:10:06.862Z,11.23
2022-12-20T13:12:36.796Z,9.40
2022-12-20T13:15:28.783Z,11.05
2022-12-20T13:18:11.052Z,10.43
2022-12-20T13:20:39.837Z,13.05
2022-12-20T13:23:07.669Z,10.13
2022-12-20T13:25:48.569Z,10.60
2022-12-20T13:28:16.648Z,10.65
2022-12-20T13:30:50.632Z,13.20
2022-12-20T13:33:48.688Z,12.15
2022-12-20T13:37:25.755Z,14.15
2022-12-20T13:39:54.317Z,11.07
2022-12-20T13:42:21.661Z,11.57
2022-12-20T13:44:54.863Z,10.35
2022-12-20T13:48:06.357Z,12.77
2022-12-20T13:50:41.633Z,15.60
2022-12-20T13:53:19.993Z,13.38
2022-12-20T13:55:48.834Z,12.27
2022-12-20T13:58:27.714Z,13.77
2022-12-20T14:01:23.652Z,12.85
2022-12-20T14:03:53.231Z,9.77
2022-12-20T14:06:26.964Z,16.58
2022-12-20T14:08:55.731Z,9.65
2022-12-20T14:11:26.981Z,16.13
2022-12-20T14:14:01.035Z,18.52
2022-12-20T14:16:33.773Z,12.38
2022-12-20T14:19:13.054Z,12.73
2022-12-20T14:21:45.232Z,12.02
2022-12-20T14:24:20.007Z,12.05
2022-12-20T14:26:51.497Z,12.23
2022-12-20T14:32:28.058Z,12.23
2022-12-20T14:34:56.124Z,11.98
2022-12-20T14:37:23.697Z,14.90
2022-12-20T14:39:57.943Z,11.77
2022-12-20T14:42:35.569Z,10.35
2022-12-20T14:45:10.703Z,12.60
2022-12-20T14:47:53.172Z,12.57
2022-12-20T14:50:30.978Z,13.07
2022-12-20T14:53:04.014Z,11.95
2022-12-20T14:55:36.499Z,14.32
2022-12-20T14:58:35.034Z,15.05
2022-12-20T15:01:15.891Z,8.85
2022-12-20T15:06:54.972Z,12.15
2022-12-20T15:09:21.861Z,12.48
2022-12-20T15:11:51.703Z,12.18
2022-12-20T15:14:39.276Z,12.20
2022-12-20T15:17:14.491Z,13.55
2022-12-20T15:19:42.922Z,13.63
2022-12-20T15:22:17.916Z,14.68
2022-12-20T15:25:19.060Z,14.27
2022-12-20T15:27:45.727Z,13.68
2022-12-20T15:30:14.154Z,11.05
2022-12-20T15:32:54.671Z,11.10
2022-12-20T15:35:53.513Z,12.82
2022-12-20T15:38:40.919Z,13.65
2022-12-20T15:41:17.719Z,16.48
2022-12-20T15:43:58.828Z,11.35
2022-12-20T15:46:32.532Z,15.48
2022-12-20T15:49:30.296Z,12.63
2022-12-20T15:51:57.997Z,14.18
2022-12-20T15:54:27.697Z,13.13
2022-12-20T15:57:21.843Z,11.45
2022-12-20T16:02:49.714Z,13.32
2022-12-20T16:05:17.862Z,18.90
2022-12-20T16:07:45.896Z,9.65
2022-12-20T16:10:15.282Z,15.13
2022-12-20T16:12:43.876Z,13.68
2022-12-20T16:15:27.455Z,14.52
2022-12-20T16:18:21.727Z,11.90
2022-12-20T16:20:54.781Z,14.82
2022-12-20T16:23:24.536Z,13.18
2022-12-20T16:26:20.059Z,15.68
2022-12-20T16:28:48.812Z,14.38
2022-12-20T16:31:31.600Z,17.83
2022-12-20T16:34:05.019Z,13.70
2022-12-20T16:36:33.006Z,17.13
2022-12-20T16:38:59.973Z,12.15
2022-12-20T16:41:38.814Z,12.80
2022-12-20T16:44:06.772Z,14.68
2022-12-20T16:46:34.825Z,13.40
2022-12-20T16:49:32.782Z,18.50
2022-12-20T16:52:00.089Z,11.73
2022-12-20T16:54:27.854Z,14.02
2022-12-20T16:57:22.002Z,21.42
2022-12-20T16:59:49.796Z,22.98
2022-12-20T17:02:44.647Z,20.17
2022-12-20T17:05:44.510Z,17.48
2022-12-20T17:11:06.734Z,25.33
2022-12-20T17:13:33.778Z,19.27
2022-12-20T17:18:55.333Z,15.93
2022-12-20T17:21:23.768Z,19.70
2022-12-20T17:23:57.660Z,16.40
2022-12-20T17:26:28.133Z,17.00
2022-12-20T17:28:58.695Z,18.80
2022-12-20T17:31:34.316Z,15.00
2022-12-20T17:34:03.769Z,16.45
2022-12-20T17:36:37.799Z,13.95
2022-12-20T17:39:11.811Z,14.98
2022-12-20T17:41:40.179Z,20.20
2022-12-20T17:44:16.521Z,19.30
2022-12-20T17:46:50.248Z,18.02
2022-12-20T17:49:18.207Z,17.88
2022-12-20T17:51:46.766Z,14.63
2022-12-20T17:57:31.787Z,19.17
2022-12-20T18:00:04.142Z,19.52
2022-12-20T18:02:32.003Z,14.10
2022-12-20T18:04:59.745Z,16.48
2022-12-20T18:07:31.770Z,16.02
2022-12-20T18:10:00.164Z,17.17
2022-12-20T18:12:30.376Z,15.77
2022-12-20T18:15:02.290Z,14.60
2022-12-20T18:17:29.733Z,13.65
2022-12-20T18:19:57.847Z,18.80
2022-12-20T18:22:25.728Z,18.83
2022-12-20T18:24:58.217Z,17.50
2022-12-20T18:27:31.145Z,15.90
2022-12-20T18:29:59.704Z,16.48
2022-12-20T18:32:52.610Z,17.67
2022-12-20T18:35:19.730Z,15.52
2022-12-20T18:37:51.987Z,16.70
2022-12-20T18:40:19.706Z,15.27
2022-12-20T18:42:48.185Z,22.85
2022-12-20T18:45:41.794Z,17.10
2022-12-20T18:48:09.745Z,19.88
2022-12-20T18:53:37.289Z,17.73
2022-12-20T18:56:11.429Z,20.02
2022-12-20T19:01:34.415Z,19.15
2022-12-20T19:04:09.163Z,18.67
2022-12-20T19:06:38.700Z,17.15
2022-12-20T19:09:11.749Z,19.98
2022-12-20T19:11:40.674Z,28.55
2022-12-20T19:14:13.641Z,26.92
2022-12-20T19:16:41.826Z,24.83
2022-12-20T19:22:53.947Z,23.80
2022-12-20T19:25:25.862Z,16.65
2022-12-20T19:28:20.357Z,19.17
2022-12-20T19:30:54.066Z,19.55
2022-12-20T19:33:21.951Z,23.55
2022-12-20T19:35:56.106Z,21.67
2022-12-20T19:38:23.905Z,19.90
2022-12-20T19:40:53.821Z,25.60
2022-12-20T19:43:27.054Z,22.45
2022-12-20T19:45:56.199Z,17.42
2022-12-20T19:48:25.656Z,26.08
2022-12-20T19:51:12.460Z,20.58
2022-12-20T19:53:41.085Z,25.63
2022-12-20T19:56:17.454Z,26.90
2022-12-20T19:58:46.063Z,26.55
2022-12-20T20:01:40.377Z,24.08
2022-12-20T20:04:10.176Z,24.58
2022-12-20T20:06:44.095Z,29.38
2022-12-20T20:09:11.967Z,32.10
2022-12-20T20:11:40.026Z,28.95
2022-12-20T20:14:15.777Z,28.05
2022-12-20T20:16:44.158Z,29.52
2022-12-20T20:19:12.314Z,28.75
2022-12-20T20:21:44.911Z,24.17
2022-12-20T20:24:11.908Z,21.02
2022-12-20T20:26:40.079Z,24.05
2022-12-20T20:29:10.428Z,24.55
2022-12-20T20:34:30.621Z,22.33
2022-12-20T20:40:20.874Z,27.60
2022-12-20T20:42:47.734Z,26.63
2022-12-20T20:45:16.905Z,31.02
2022-12-20T20:50:38.292Z,26.05
2022-12-20T20:53:34.271Z,27.00
2022-12-20T20:56:05.984Z,24.90
2022-12-20T20:58:35.335Z,23.38
2022-12-20T21:01:08.462Z,21.90
2022-12-20T21:03:41.661Z,23.67
2022-12-20T21:06:39.035Z,26.40
2022-12-20T21:09:07.838Z,28.35
2022-12-20T21:11:37.013Z,25.00
2022-12-20T21:14:05.738Z,22.52
2022-12-20T21:16:45.433Z,24.45
2022-12-20T21:19:14.463Z,28.73
2022-12-20T21:21:41.811Z,22.20
2022-12-20T21:24:09.717Z,23.88
2022-12-20T21:26:37.902Z,23.77
2022-12-20T21:29:05.692Z,25.23
2022-12-20T21:31:33.887Z,28.30
2022-12-20T21:36:53.695Z,24.08
2022-12-20T21:42:13.802Z,27.10
2022-12-20T21:44:41.761Z,27.63
2022-12-20T21:47:11.191Z,24.95
2022-12-20T21:49:39.739Z,29.15
2022-12-20T21:52:07.929Z,28.65
2022-12-20T21:54:35.840Z,28.17
2022-12-20T21:57:03.886Z,24.42
2022-12-20T21:59:36.756Z,29.08
2022-12-20T22:02:05.115Z,25.40
2022-12-20T22:04:34.486Z,28.00
2022-12-20T22:07:01.731Z,26.73
2022-12-20T22:09:29.736Z,31.00
2022-12-20T22:12:21.703Z,24.30
2022-12-20T22:14:49.722Z,25.13
2022-12-20T22:17:17.726Z,28.70
2022-12-20T22:19:45.757Z,28.48
2022-12-20T22:22:19.065Z,24.70
2022-12-20T22:24:51.859Z,30.40
2022-12-20T22:27:19.803Z,36.35
2022-12-20T22:29:47.790Z,35.67
2022-12-20T22:32:15.861Z,39.80
2022-12-20T22:34:43.769Z,29.50
2022-12-20T22:37:11.729Z,27.70
2022-12-20T22:39:39.771Z,30.88
2022-12-20T22:42:11.837Z,22.90
2022-12-20T22:44:39.996Z,23.23
2022-12-20T22:47:08.312Z,29.75
2022-12-20T22:49:35.709Z,33.63
2022-12-20T22:52:07.625Z,27.35
2022-12-20T22:54:39.786Z,26.58
2022-12-20T22:57:10.337Z,27.67
2022-12-20T22:59:37.815Z,26.35
2022-12-20T23:02:06.159Z,26.70
2022-12-20T23:04:39.095Z,25.95
2022-12-20T23:07:07.321Z,22.30
2022-12-20T23:09:35.714Z,23.13
2022-12-20T23:12:32.827Z,21.60
2022-12-20T23:15:30.736Z,26.60
2022-12-20T23:17:58.450Z,26.63
2022-12-20T23:20:44.022Z,23.48
2022-12-20T23:23:11.735Z,22.85
2022-12-20T23:25:50.514Z,26.05
2022-12-20T23:28:23.716Z,25.60
2022-12-20T23:30:51.727Z,24.35
2022-12-20T23:33:19.720Z,25.27
2022-12-20T23:36:01.538Z,20.25
2022-12-20T23:38:34.391Z,21.23
2022-12-20T23:41:28.478Z,19.92
2022-12-20T23:44:26.841Z,20.45
2022-12-20T23:46:58.751Z,21.00
2022-12-20T23:49:25.850Z,19.50
2022-12-20T23:51:57.700Z,19.30
2022-12-20T23:54:25.819Z,19.25
2022-12-20T23:56:53.812Z,24.67
2022-12-20T23:59:21.850Z,19.83
